createdAt,value
2023-06-30T00:02:49.678Z,20.71
2023-06-30T00:05:51.804Z,20.62
2023-06-30T00:08:53.636Z,20.58
2023-06-30T00:11:56.174Z,20.56
2023-06-30T00:14:57.880Z,20.54
2023-06-30T00:17:59.751Z,20.51
2023-06-30T00:21:01.454Z,20.51
2023-06-30T00:24:03.741Z,20.51
2023-06-30T00:27:05.810Z,20.46
2023-06-30T00:30:08.069Z,20.42
2023-06-30T00:33:10.189Z,20.39
2023-06-30T00:36:12.139Z,20.32
2023-06-30T00:39:13.762Z,20.34
2023-06-30T00:42:15.642Z,20.26
2023-06-30T00:45:17.657Z,20.26
2023-06-30T00:48:19.743Z,20.25
2023-06-30T00:51:21.486Z,20.27
2023-06-30T00:54:23.154Z,20.21
2023-06-30T00:57:24.910Z,20.21
2023-06-30T01:00:26.936Z,20.18
2023-06-30T01:03:39.972Z,20.18
2023-06-30T01:06:55.542Z,20.15
2023-06-30T01:10:04.254Z,20.15
2023-06-30T01:13:06.987Z,20.10
2023-06-30T01:16:10.519Z,20.05
2023-06-30T01:19:24.080Z,20.04
2023-06-30T01:22:36.434Z,20.00
2023-06-30T01:25:38.478Z,19.89
2023-06-30T01:28:40.717Z,19.82
2023-06-30T01:31:42.548Z,19.79
2023-06-30T01:34:46.507Z,19.81
2023-06-30T01:37:48.755Z,19.83
2023-06-30T01:40:50.496Z,19.83
2023-06-30T01:43:52.726Z,19.81
2023-06-30T01:46:54.505Z,19.76
2023-06-30T01:49:57.637Z,19.71
2023-06-30T01:53:00.800Z,19.73
2023-06-30T01:56:02.726Z,19.69
2023-06-30T01:59:04.514Z,19.69
2023-06-30T02:02:06.596Z,19.63
2023-06-30T02:05:09.094Z,19.64
2023-06-30T02:08:10.874Z,19.64
2023-06-30T02:11:12.532Z,19.66
2023-06-30T02:14:14.514Z,19.63
2023-06-30T02:17:16.763Z,19.52
2023-06-30T02:20:18.521Z,19.50
2023-06-30T02:23:20.244Z,19.47
2023-06-30T02:26:22.191Z,19.46
2023-06-30T02:29:23.969Z,19.43
2023-06-30T02:32:25.734Z,19.41
2023-06-30T02:35:27.513Z,19.39
2023-06-30T02:38:29.416Z,19.39
2023-06-30T02:41:31.221Z,19.37
2023-06-30T02:44:32.948Z,19.33
2023-06-30T02:47:34.816Z,19.12
2023-06-30T02:50:36.864Z,19.30
2023-06-30T02:53:39.118Z,19.27
2023-06-30T02:56:40.787Z,19.26
2023-06-30T02:59:42.465Z,19.22
2023-06-30T03:02:44.538Z,19.15
2023-06-30T03:05:47.051Z,19.16
2023-06-30T03:08:48.998Z,19.12
2023-06-30T03:11:50.714Z,19.08
2023-06-30T03:14:52.343Z,19.06
2023-06-30T03:17:54.021Z,19.06
2023-06-30T03:20:55.639Z,19.06
2023-06-30T03:23:57.306Z,19.08
2023-06-30T03:26:59.336Z,19.07
2023-06-30T03:30:01.066Z,19.12
2023-06-30T03:33:02.990Z,19.15
2023-06-30T03:36:04.949Z,19.18
2023-06-30T03:39:06.547Z,19.22
2023-06-30T03:42:08.380Z,19.26
2023-06-30T03:45:10.909Z,19.31
2023-06-30T03:48:12.562Z,19.34
2023-06-30T03:51:14.209Z,19.39
2023-06-30T03:54:16.487Z,19.41
2023-06-30T03:57:18.172Z,19.42
2023-06-30T04:00:20.201Z,19.40
2023-06-30T04:03:22.485Z,19.43
2023-06-30T04:06:25.518Z,19.32
2023-06-30T04:09:27.182Z,19.33
2023-06-30T04:12:28.829Z,19.29
2023-06-30T04:15:30.763Z,19.24
2023-06-30T04:18:32.849Z,19.11
2023-06-30T04:21:34.845Z,19.15
2023-06-30T04:24:36.645Z,19.12
2023-06-30T04:27:38.355Z,19.09
2023-06-30T04:30:40.278Z,19.17
2023-06-30T04:33:42.798Z,19.19
2023-06-30T04:36:45.241Z,19.29
2023-06-30T04:39:47.202Z,19.40
2023-06-30T04:42:48.852Z,19.55
2023-06-30T04:45:51.123Z,19.60
2023-06-30T04:48:52.803Z,19.64
2023-06-30T04:51:54.496Z,19.64
2023-06-30T04:54:56.469Z,19.70
2023-06-30T04:57:58.107Z,19.74
2023-06-30T05:00:59.810Z,19.88
2023-06-30T05:04:01.919Z,20.01
2023-06-30T05:07:04.191Z,20.10
2023-06-30T05:10:06.333Z,20.18
2023-06-30T05:13:08.127Z,20.30
2023-06-30T05:16:12.850Z,20.47
2023-06-30T05:19:14.603Z,20.54
2023-06-30T05:22:16.480Z,20.60
2023-06-30T05:25:18.204Z,20.67
2023-06-30T05:28:20.432Z,20.75
2023-06-30T05:31:22.524Z,20.75
2023-06-30T05:34:24.445Z,20.83
2023-06-30T05:37:26.506Z,20.97
2023-06-30T05:40:28.306Z,20.99
2023-06-30T05:43:30.006Z,21.08
2023-06-30T05:46:32.600Z,21.13
2023-06-30T05:49:34.321Z,21.06
2023-06-30T05:52:36.067Z,21.27
2023-06-30T05:55:37.793Z,21.31
2023-06-30T05:58:39.462Z,21.44
2023-06-30T06:01:41.430Z,21.53
2023-06-30T06:04:43.201Z,21.60
2023-06-30T06:07:45.110Z,21.71
2023-06-30T06:10:47.123Z,21.88
2023-06-30T06:13:49.159Z,21.95
2023-06-30T06:16:51.217Z,22.04
2023-06-30T06:19:53.600Z,22.23
2023-06-30T06:22:55.705Z,22.40
2023-06-30T06:25:57.744Z,22.57
2023-06-30T06:29:04.238Z,22.75
2023-06-30T06:32:06.572Z,22.89
2023-06-30T06:35:08.700Z,23.02
2023-06-30T06:38:10.670Z,23.07
2023-06-30T06:41:12.698Z,23.18
2023-06-30T06:44:14.672Z,23.23
2023-06-30T06:47:36.569Z,23.25
2023-06-30T06:50:38.571Z,23.47
2023-06-30T06:53:40.218Z,23.66
2023-06-30T06:56:42.484Z,23.79
2023-06-30T06:59:44.119Z,23.91
2023-06-30T07:02:46.134Z,23.99
2023-06-30T07:05:48.145Z,23.98
2023-06-30T07:08:50.368Z,24.15
2023-06-30T07:11:52.193Z,24.33
2023-06-30T07:14:53.957Z,24.46
2023-06-30T07:17:56.037Z,24.52
2023-06-30T07:20:57.734Z,24.49
2023-06-30T07:23:59.733Z,24.59
2023-06-30T07:27:01.410Z,24.79
2023-06-30T07:30:04.155Z,24.86
2023-06-30T07:33:05.901Z,24.96
2023-06-30T07:36:07.669Z,25.01
2023-06-30T07:39:09.481Z,25.14
2023-06-30T07:42:11.228Z,25.26
2023-06-30T07:45:15.065Z,25.46
2023-06-30T07:48:16.862Z,25.62
2023-06-30T07:51:18.628Z,25.84
2023-06-30T07:54:21.274Z,26.29
2023-06-30T07:57:27.432Z,28.21
2023-06-30T08:00:32.388Z,30.72
2023-06-30T08:03:35.178Z,32.87
2023-06-30T08:06:37.112Z,34.22
2023-06-30T08:09:39.051Z,34.69
2023-06-30T08:12:40.789Z,35.44
2023-06-30T08:15:45.809Z,35.80
2023-06-30T08:18:53.369Z,36.64
2023-06-30T08:21:56.077Z,35.97
2023-06-30T08:24:57.835Z,36.34
2023-06-30T08:27:59.835Z,36.17
2023-06-30T08:31:01.584Z,36.60
2023-06-30T08:34:03.611Z,36.98
2023-06-30T08:37:05.850Z,37.60
2023-06-30T08:40:08.666Z,37.31
2023-06-30T08:43:12.159Z,37.70
2023-06-30T08:46:16.536Z,38.07
2023-06-30T08:49:19.967Z,37.26
2023-06-30T08:52:23.093Z,38.57
2023-06-30T08:55:25.217Z,39.58
2023-06-30T08:58:27.974Z,39.84
2023-06-30T09:01:30.027Z,39.82
2023-06-30T09:04:32.815Z,40.37
2023-06-30T09:07:43.073Z,39.02
2023-06-30T09:10:48.074Z,39.06
2023-06-30T09:13:50.224Z,38.31
2023-06-30T09:16:52.242Z,38.53
2023-06-30T09:19:53.922Z,39.42
2023-06-30T09:22:57.419Z,39.47
2023-06-30T09:25:59.507Z,40.60
2023-06-30T09:29:02.184Z,40.02
2023-06-30T09:32:04.670Z,39.03
2023-06-30T09:35:07.231Z,39.55
2023-06-30T09:38:11.124Z,39.83
2023-06-30T09:41:21.579Z,40.47
2023-06-30T09:44:23.741Z,39.15
2023-06-30T09:47:27.438Z,39.12
2023-06-30T09:50:31.853Z,39.23
2023-06-30T09:53:38.222Z,38.24
2023-06-30T09:56:41.514Z,39.03
2023-06-30T09:59:43.634Z,38.14
2023-06-30T10:02:45.818Z,38.66
2023-06-30T10:05:48.644Z,39.19
2023-06-30T10:08:51.645Z,39.75
2023-06-30T10:11:56.168Z,39.54
2023-06-30T10:14:58.750Z,39.90
2023-06-30T10:18:01.683Z,39.98
2023-06-30T10:21:03.770Z,39.78
2023-06-30T10:24:06.448Z,39.35
2023-06-30T10:27:10.715Z,38.92
2023-06-30T10:30:13.581Z,39.19
2023-06-30T10:33:15.387Z,38.69
2023-06-30T10:36:17.794Z,37.25
2023-06-30T10:39:19.966Z,37.83
2023-06-30T10:42:21.834Z,37.14
2023-06-30T10:45:30.219Z,37.76
2023-06-30T10:48:31.978Z,37.80
2023-06-30T10:51:36.545Z,37.88
2023-06-30T10:54:41.020Z,36.77
2023-06-30T10:57:50.191Z,37.06
2023-06-30T11:01:03.868Z,37.03
2023-06-30T11:04:13.131Z,36.89
2023-06-30T11:07:20.124Z,37.26
2023-06-30T11:10:26.902Z,35.27
2023-06-30T11:13:38.484Z,34.07
2023-06-30T11:17:05.272Z,32.29
2023-06-30T11:20:14.674Z,32.10
2023-06-30T11:23:18.559Z,31.55
2023-06-30T11:26:20.596Z,31.51
2023-06-30T11:29:23.646Z,31.43
2023-06-30T11:32:28.659Z,31.51
2023-06-30T11:35:33.559Z,31.21
2023-06-30T11:38:40.889Z,31.33
2023-06-30T11:41:45.196Z,31.21
2023-06-30T11:44:47.059Z,31.22
2023-06-30T11:47:49.486Z,31.44
2023-06-30T11:50:51.280Z,31.20
2023-06-30T11:53:52.961Z,31.13
2023-06-30T11:56:54.680Z,31.17
2023-06-30T11:59:56.302Z,31.47
2023-06-30T12:02:59.268Z,31.52
2023-06-30T12:06:01.235Z,31.14
2023-06-30T12:09:03.765Z,30.98
2023-06-30T12:12:06.080Z,31.05
2023-06-30T12:15:11.052Z,30.91
2023-06-30T12:18:13.080Z,30.89
2023-06-30T12:21:15.057Z,31.12
2023-06-30T12:24:18.808Z,30.88
2023-06-30T12:27:20.540Z,30.93
2023-06-30T12:30:22.351Z,30.90
2023-06-30T12:33:24.301Z,31.17
2023-06-30T12:36:30.166Z,30.80
2023-06-30T12:39:32.213Z,30.73
2023-06-30T12:42:34.113Z,30.78
2023-06-30T12:45:35.902Z,30.70
2023-06-30T12:48:37.902Z,30.44
2023-06-30T12:51:39.512Z,30.57
2023-06-30T12:54:41.509Z,30.49
2023-06-30T12:57:43.414Z,30.46
2023-06-30T13:00:45.724Z,30.51
2023-06-30T13:03:47.610Z,30.46
2023-06-30T13:06:49.419Z,30.42
2023-06-30T13:09:51.573Z,30.32
2023-06-30T13:12:53.401Z,29.92
2023-06-30T13:15:55.498Z,30.07
2023-06-30T13:18:57.513Z,30.67
2023-06-30T13:21:59.278Z,31.00
2023-06-30T13:25:01.564Z,31.52
2023-06-30T13:28:03.416Z,31.66
2023-06-30T13:31:06.764Z,31.42
2023-06-30T13:34:10.098Z,31.40
2023-06-30T13:37:12.843Z,31.48
2023-06-30T13:40:14.791Z,31.81
2023-06-30T13:43:16.529Z,32.28
2023-06-30T13:46:18.474Z,32.19
2023-06-30T13:49:20.197Z,31.85
2023-06-30T13:52:21.855Z,31.31
2023-06-30T13:55:23.598Z,31.11
2023-06-30T13:58:25.326Z,30.48
2023-06-30T14:01:29.340Z,30.84
2023-06-30T14:04:32.008Z,31.27
2023-06-30T14:07:34.138Z,31.53
2023-06-30T14:10:35.885Z,31.82
2023-06-30T14:13:37.562Z,31.21
2023-06-30T14:16:39.442Z,30.69
2023-06-30T14:19:41.181Z,30.93
2023-06-30T14:22:42.783Z,31.36
2023-06-30T14:25:44.966Z,30.89
2023-06-30T14:28:47.080Z,31.11
2023-06-30T14:31:48.900Z,31.08
2023-06-30T14:34:51.074Z,31.28
2023-06-30T14:37:52.834Z,31.50
2023-06-30T14:40:54.492Z,31.88
2023-06-30T14:43:56.810Z,31.82
2023-06-30T14:46:59.824Z,31.94
2023-06-30T14:50:01.743Z,31.99
2023-06-30T14:53:03.451Z,31.57
2023-06-30T14:56:05.304Z,31.02
2023-06-30T14:59:06.992Z,30.66
2023-06-30T15:02:08.764Z,31.24
2023-06-30T15:05:10.535Z,31.16
2023-06-30T15:08:12.840Z,31.21
2023-06-30T15:11:14.474Z,31.47
2023-06-30T15:14:16.206Z,31.46
2023-06-30T15:17:17.935Z,31.37
2023-06-30T15:20:19.980Z,31.32
2023-06-30T15:23:21.585Z,31.17
2023-06-30T15:26:23.223Z,30.81
2023-06-30T15:29:24.947Z,30.71
2023-06-30T15:32:26.822Z,30.75
2023-06-30T15:35:28.646Z,30.83
2023-06-30T15:38:30.358Z,30.90
2023-06-30T15:41:32.197Z,30.87
2023-06-30T15:44:33.904Z,30.84
2023-06-30T15:47:36.127Z,30.57
2023-06-30T15:50:37.802Z,30.50
2023-06-30T15:53:39.540Z,30.27
2023-06-30T15:56:41.564Z,30.25
2023-06-30T15:59:43.265Z,30.17
2023-06-30T16:02:44.993Z,30.07
2023-06-30T16:05:46.935Z,30.03
2023-06-30T16:08:49.116Z,29.98
2023-06-30T16:11:50.747Z,29.97
2023-06-30T16:14:52.457Z,29.66
2023-06-30T16:17:54.335Z,29.60
2023-06-30T16:20:56.258Z,29.46
2023-06-30T16:23:58.500Z,29.37
2023-06-30T16:27:00.240Z,29.35
2023-06-30T16:30:19.795Z,29.14
2023-06-30T16:33:21.624Z,29.12
2023-06-30T16:36:23.443Z,29.05
2023-06-30T16:39:25.468Z,29.02
2023-06-30T16:42:27.122Z,28.99
2023-06-30T16:45:29.076Z,28.93
2023-06-30T16:48:30.811Z,28.84
2023-06-30T16:51:32.872Z,28.78
2023-06-30T16:54:34.518Z,28.67
2023-06-30T16:57:36.178Z,28.51
2023-06-30T17:00:38.147Z,28.49
2023-06-30T17:03:39.938Z,28.40
2023-06-30T17:06:41.985Z,28.36
2023-06-30T17:09:44.229Z,28.31
2023-06-30T17:12:45.924Z,28.26
2023-06-30T17:15:47.996Z,28.19
2023-06-30T17:18:50.013Z,28.12
2023-06-30T17:21:51.712Z,28.10
2023-06-30T17:24:56.040Z,28.01
2023-06-30T17:28:00.129Z,28.00
2023-06-30T17:31:01.939Z,27.91
2023-06-30T17:34:03.681Z,27.87
2023-06-30T17:37:09.869Z,27.83
2023-06-30T17:40:12.512Z,27.79
2023-06-30T17:43:14.182Z,27.76
2023-06-30T17:46:16.004Z,27.73
2023-06-30T17:49:31.622Z,27.68
2023-06-30T17:52:33.657Z,27.63
2023-06-30T17:55:35.353Z,27.58
2023-06-30T17:58:37.923Z,27.56
2023-06-30T18:01:40.596Z,27.50
2023-06-30T18:04:42.758Z,27.44
2023-06-30T18:07:44.616Z,27.37
2023-06-30T18:10:49.102Z,27.31
2023-06-30T18:13:56.263Z,27.25
2023-06-30T18:16:59.419Z,27.21
2023-06-30T18:20:01.184Z,27.14
2023-06-30T18:23:02.916Z,27.11
2023-06-30T18:26:04.948Z,27.07
2023-06-30T18:29:06.716Z,27.02
2023-06-30T18:32:08.735Z,26.97
2023-06-30T18:35:10.706Z,26.92
2023-06-30T18:38:12.710Z,26.89
2023-06-30T18:41:14.750Z,26.84
2023-06-30T18:44:16.535Z,26.77
2023-06-30T18:47:18.822Z,26.72
2023-06-30T18:50:20.660Z,26.67
2023-06-30T18:53:22.715Z,26.64
2023-06-30T18:56:25.314Z,26.58
2023-06-30T18:59:27.385Z,26.53
2023-06-30T19:02:30.401Z,26.49
2023-06-30T19:05:32.473Z,26.45
2023-06-30T19:08:34.306Z,26.41
2023-06-30T19:11:36.554Z,26.36
2023-06-30T19:14:38.255Z,26.34
2023-06-30T19:17:40.914Z,26.31
2023-06-30T19:20:42.926Z,26.28
2023-06-30T19:23:44.718Z,26.24
2023-06-30T19:26:46.495Z,26.24
2023-06-30T19:29:48.793Z,26.20
2023-06-30T19:32:50.893Z,26.14
2023-06-30T19:35:52.596Z,26.11
2023-06-30T19:38:55.124Z,26.06
2023-06-30T19:41:56.879Z,26.02
2023-06-30T19:44:58.901Z,25.98
2023-06-30T19:48:00.686Z,25.90
2023-06-30T19:51:02.516Z,25.85
2023-06-30T19:54:04.615Z,25.82
2023-06-30T19:57:06.639Z,25.76
2023-06-30T20:00:11.954Z,25.72
2023-06-30T20:03:13.825Z,25.69
2023-06-30T20:06:17.872Z,25.58
2023-06-30T20:09:19.815Z,25.59
2023-06-30T20:12:21.464Z,25.54
2023-06-30T20:15:23.148Z,25.48
2023-06-30T20:18:24.805Z,25.43
2023-06-30T20:21:26.607Z,25.39
2023-06-30T20:24:28.285Z,25.36
2023-06-30T20:27:30.015Z,25.35
2023-06-30T20:30:42.873Z,25.33
2023-06-30T20:33:45.557Z,25.29
2023-06-30T20:36:47.565Z,25.23
2023-06-30T20:39:49.273Z,25.20
2023-06-30T20:42:51.192Z,25.17
2023-06-30T20:45:52.852Z,25.16
2023-06-30T20:48:54.622Z,25.14
2023-06-30T20:51:57.677Z,25.09
2023-06-30T20:54:59.836Z,25.04
2023-06-30T20:58:12.961Z,24.98
2023-06-30T21:01:14.670Z,24.92
2023-06-30T21:04:16.695Z,24.88
2023-06-30T21:07:18.504Z,24.84
2023-06-30T21:10:20.793Z,24.82
2023-06-30T21:13:22.493Z,24.80
2023-06-30T21:16:24.234Z,24.75
2023-06-30T21:19:25.986Z,24.74
2023-06-30T21:22:28.103Z,24.71
2023-06-30T21:25:30.165Z,24.68
2023-06-30T21:28:31.953Z,24.66
2023-06-30T21:31:33.949Z,24.62
2023-06-30T21:34:35.732Z,24.56
2023-06-30T21:37:37.483Z,24.51
2023-06-30T21:40:39.144Z,24.46
2023-06-30T21:43:41.193Z,24.43
2023-06-30T21:46:42.960Z,24.42
2023-06-30T21:49:45.007Z,24.42
2023-06-30T21:52:47.170Z,24.37
2023-06-30T21:55:48.879Z,24.30
2023-06-30T21:58:51.007Z,24.26
2023-06-30T22:01:53.105Z,24.23
2023-06-30T22:04:54.875Z,24.20
2023-06-30T22:07:56.529Z,24.17
2023-06-30T22:10:58.541Z,24.12
2023-06-30T22:14:00.169Z,24.06
2023-06-30T22:17:02.223Z,24.01
2023-06-30T22:20:05.101Z,23.94
2023-06-30T22:23:07.168Z,23.87
2023-06-30T22:26:08.809Z,23.84
2023-06-30T22:29:10.801Z,23.79
2023-06-30T22:32:12.905Z,23.75
2023-06-30T22:35:14.642Z,23.69
2023-06-30T22:38:16.586Z,23.66
2023-06-30T22:41:18.342Z,23.64
2023-06-30T22:44:20.010Z,23.63
2023-06-30T22:47:22.703Z,23.59
2023-06-30T22:50:24.446Z,23.58
2023-06-30T22:53:26.255Z,23.51
2023-06-30T22:56:27.931Z,23.45
2023-06-30T22:59:29.582Z,23.40
2023-06-30T23:02:31.262Z,23.32
2023-06-30T23:05:32.938Z,23.31
2023-06-30T23:08:34.626Z,23.28
2023-06-30T23:11:37.145Z,23.24
2023-06-30T23:14:38.870Z,23.20
2023-06-30T23:17:40.710Z,23.15
2023-06-30T23:20:42.537Z,23.11
2023-06-30T23:23:45.458Z,23.09
2023-06-30T23:27:04.152Z,23.05
2023-06-30T23:30:11.498Z,23.02
2023-06-30T23:33:13.520Z,23.00
2023-06-30T23:36:16.303Z,22.96
2023-06-30T23:39:18.095Z,22.93
2023-06-30T23:42:20.764Z,22.89
2023-06-30T23:45:22.554Z,22.86
2023-06-30T23:48:24.148Z,22.82
2023-06-30T23:51:25.825Z,22.80
2023-06-30T23:54:27.578Z,22.78
2023-06-30T23:57:29.236Z,22.74
